Time;durP1;ratioP1;P1;durP2;ratioP2;P2;SDS_P1;SDS_P2;PMS_P1;PMS_P2;Temp;Humidity;BMP_temperature;BMP_pressure;BME280_temperature;BME280_humidity;BME280_pressure;Samples;Min_cycle;Max_cycle;Signal;HPM_P1;HPM_P2
2021/05/30 00:01:51;;;;;;;15.65;7.93;;;;;;;16.38;56.90;102358.59;3543367;40;20418;-76
2021/05/30 00:04:19;;;;;;;14.90;7.00;;;;;;;16.35;57.29;102360.38;3558615;40;20041;-75
2021/05/30 00:06:46;;;;;;;;;;;;;;;16.33;54.32;102362.19;3557246;40;20168;-76
2021/05/30 00:09:14;;;;;;;14.98;6.30;;;;;;;16.28;56.89;102363.19;3554918;40;19933;-75
2021/05/30 00:11:41;;;;;;;11.38;5.00;;;;;;;16.24;56.28;102365.00;3533739;40;20058;-76
2021/05/30 00:14:17;;;;;;;10.07;4.38;;;;;;;16.16;56.18;102348.47;3528412;40;20089;-76
2021/05/30 00:16:45;;;;;;;13.45;5.93;;;;;;;16.10;56.39;102348.59;3552735;40;20356;-76
2021/05/30 00:19:14;;;;;;;13.63;6.45;;;;;;;16.06;56.61;102346.91;3556477;40;20068;-75
2021/05/30 00:21:47;;;;;;;13.07;6.00;;;;;;;16.00;55.98;102347.03;3557829;40;20065;-76
2021/05/30 00:24:14;;;;;;;14.60;6.75;;;;;;;15.95;57.29;102351.50;3542720;40;20067;-76
2021/05/30 00:26:41;;;;;;;16.20;7.32;;;;;;;15.91;56.81;102352.47;3563409;40;20089;-76
2021/05/30 00:29:09;;;;;;;12.18;6.30;;;;;;;15.85;57.05;102342.91;3552352;40;20177;-75
2021/05/30 00:31:35;;;;;;;14.88;7.13;;;;;;;15.70;57.37;102324.75;3552509;40;20056;-75
2021/05/30 00:34:04;;;;;;;11.40;5.13;;;;;;;15.78;57.11;102347.44;3554610;40;20060;-76
2021/05/30 00:36:31;;;;;;;14.38;7.00;;;;;;;15.75;58.42;102342.19;3539978;40;20049;-76
2021/05/30 00:39:02;;;;;;;15.80;7.73;;;;;;;15.74;58.18;102348.38;3555335;40;20045;-75
2021/05/30 00:41:29;;;;;;;17.63;8.45;;;;;;;15.70;59.00;102349.31;3545664;40;20057;-76
2021/05/30 00:43:59;;;;;;;17.03;7.40;;;;;;;15.68;58.71;102345.84;3555631;40;20100;-76
2021/05/30 00:46:30;;;;;;;14.93;7.32;;;;;;;15.65;58.38;102345.91;3555354;40;20081;-75
2021/05/30 00:48:58;;;;;;;11.35;5.60;;;;;;;15.60;58.25;102342.44;3545253;40;20061;-76
2021/05/30 00:51:28;;;;;;;12.23;6.05;;;;;;;15.58;57.64;102346.88;3541277;40;20065;-76
2021/05/30 00:53:54;;;;;;;;;;;;;;;15.55;55.41;102342.50;3557265;40;20062;-76
2021/05/30 00:56:22;;;;;;;15.88;7.10;;;;;;;15.48;58.54;102337.41;3531554;40;20180;-76
2021/05/30 00:58:49;;;;;;;;;;;;;;;15.48;55.34;102343.53;3558290;40;20112;-75
2021/05/30 01:01:15;;;;;;;12.35;5.88;;;;;;;15.41;58.42;102335.75;3553192;40;20039;-76
2021/05/30 01:03:42;;;;;;;7.97;3.70;;;;;;;15.35;58.27;102330.59;3554064;40;20088;-76
2021/05/30 01:06:11;;;;;;;15.52;7.43;;;;;;;15.36;58.83;102342.84;3550427;40;20060;-76
2021/05/30 01:08:39;;;;;;;12.57;5.22;;;;;;;15.35;58.61;102346.38;3556548;40;20050;-76
2021/05/30 01:11:15;;;;;;;;;;;;;;;15.34;55.83;102349.91;3546601;40;20241;-76
2021/05/30 01:13:55;;;;;;;14.10;6.68;;;;;;;15.31;57.79;102348.22;3542086;40;19988;-75
2021/05/30 01:16:24;;;;;;;15.57;6.60;;;;;;;15.27;59.14;102349.16;3539278;40;20086;-76
2021/05/30 01:18:58;;;;;;;17.73;7.03;;;;;;;15.25;59.27;102351.78;3556435;40;20074;-76
2021/05/30 01:21:27;;;;;;;12.18;5.45;;;;;;;15.20;59.20;102352.75;3548142;40;20933;-75
2021/05/30 01:23:56;;;;;;;13.57;6.38;;;;;;;15.18;59.57;102350.16;3542064;40;20046;-75
2021/05/30 01:26:24;;;;;;;14.95;6.72;;;;;;;15.13;60.18;102349.34;3550496;40;20618;-76
2021/05/30 01:28:51;;;;;;;;;;;;;;;15.13;56.83;102349.34;3555877;40;20053;-75
2021/05/30 01:31:18;;;;;;;13.93;6.53;;;;;;;15.10;60.48;102352.03;3551305;40;19937;-75
2021/05/30 01:33:47;;;;;;;11.43;5.50;;;;;;;15.06;60.53;102345.09;3535190;40;20058;-75
2021/05/30 01:36:15;;;;;;;11.85;5.30;;;;;;;15.01;61.17;102337.25;3549433;40;20108;-75
2021/05/30 01:38:44;;;;;;;13.55;6.30;;;;;;;15.02;60.21;102338.13;3554732;40;20509;-75
2021/05/30 01:41:11;;;;;;;13.80;6.00;;;;;;;15.03;59.95;102345.13;3555783;40;20085;-75
2021/05/30 01:43:39;;;;;;;13.43;6.72;;;;;;;14.99;59.82;102336.41;3555532;40;20137;-76
2021/05/30 01:46:07;;;;;;;11.77;5.15;;;;;;;14.99;59.25;102344.28;3556143;40;20108;-76
2021/05/30 01:48:35;;;;;;;15.43;7.18;;;;;;;14.93;59.97;102335.63;3557005;40;20046;-76
2021/05/30 01:51:03;;;;;;;;;;;;;;;14.96;57.00;102343.50;3561354;40;20061;-75
2021/05/30 01:53:47;;;;;;;15.63;6.72;;;;;;;14.90;59.48;102338.28;3550374;40;19950;-75
2021/05/30 01:59:03;;;;;;;17.63;7.55;;;;;;;14.82;60.14;102329.66;3538413;40;20067;-75
2021/05/30 02:01:32;;;;;;;18.50;8.23;;;;;;;14.83;60.29;102347.19;3551720;40;20777;-76
2021/05/30 02:04:02;;;;;;;16.35;7.03;;;;;;;14.83;60.01;102347.19;3544760;40;20074;-76
2021/05/30 02:06:33;;;;;;;15.85;6.90;;;;;;;14.77;59.88;102337.63;3555242;40;20080;-76
2021/05/30 02:09:01;;;;;;;15.93;7.38;;;;;;;14.72;60.39;102339.44;3547978;40;20076;-76
2021/05/30 02:11:31;;;;;;;17.02;7.32;;;;;;;14.70;60.36;102341.19;3545552;40;20050;-76
2021/05/30 02:14:06;;;;;;;17.15;7.10;;;;;;;14.71;59.86;102343.84;3540245;40;20385;-75
2021/05/30 02:16:37;;;;;;;12.95;6.20;;;;;;;14.67;60.63;102338.63;3544875;40;20083;-75
2021/05/30 02:19:06;;;;;;;14.48;6.68;;;;;;;14.64;60.98;102339.53;3542685;40;20149;-76
2021/05/30 02:21:38;;;;;;;12.77;6.03;;;;;;;14.67;60.78;102341.25;3548676;40;20843;-76
2021/05/30 02:24:06;;;;;;;16.02;7.68;;;;;;;14.65;62.75;102349.19;3539767;40;20132;-76
2021/05/30 02:26:33;;;;;;;16.77;6.57;;;;;;;14.60;62.21;102340.47;3545047;40;20062;-75
2021/05/30 02:29:04;;;;;;;14.30;6.85;;;;;;;14.63;62.09;102340.41;3548017;40;20065;-76
2021/05/30 02:31:32;;;;;;;14.38;6.45;;;;;;;14.62;62.14;102345.72;3532752;40;20058;-75
2021/05/30 02:34:05;;;;;;;16.10;7.65;;;;;;;14.58;61.25;102339.63;3552097;40;20307;-75
2021/05/30 02:36:35;;;;;;;14.18;6.13;;;;;;;14.57;61.96;102340.50;3544518;40;20069;-75
2021/05/30 02:39:02;;;;;;;10.20;4.47;;;;;;;14.57;61.78;102340.50;3547666;40;20133;-75
2021/05/30 02:41:29;;;;;;;12.27;5.38;;;;;;;14.52;61.71;102327.44;3559558;40;20848;-75
2021/05/30 02:43:55;;;;;;;9.05;3.97;;;;;;;14.53;60.95;102344.06;3545398;40;20109;-76
2021/05/30 02:46:23;;;;;;;12.88;5.43;;;;;;;14.51;60.90;102335.34;3550317;40;20054;-76
2021/05/30 02:48:51;;;;;;;15.00;6.35;;;;;;;14.46;61.39;102337.13;3558029;40;20061;-76
2021/05/30 02:51:43;;;;;;;12.50;5.43;;;;;;;14.50;59.34;102344.13;3552023;40;20070;-75
2021/05/30 02:54:12;;;;;;;11.60;5.15;;;;;;;14.45;60.99;102335.38;3545774;40;20078;-75
2021/05/30 02:56:41;;;;;;;12.48;5.60;;;;;;;14.42;61.66;102336.28;3546562;40;20147;-76
2021/05/30 02:59:07;;;;;;;11.10;5.28;;;;;;;14.36;61.74;102325.00;3554544;40;20135;-75
2021/05/30 03:01:35;;;;;;;13.02;5.63;;;;;;;14.38;61.76;102331.09;3551384;40;20136;-76
2021/05/30 03:04:03;;;;;;;14.15;6.68;;;;;;;14.31;61.89;102327.66;3559396;40;24657;-75
2021/05/30 03:06:31;;;;;;;12.00;5.53;;;;;;;14.31;62.08;102330.31;3547793;40;20517;-75
2021/05/30 03:09:02;;;;;;;14.70;6.53;;;;;;;14.32;61.69;102323.28;3545976;40;20054;-75
2021/05/30 03:11:35;;;;;;;13.68;5.50;;;;;;;14.30;60.86;102322.44;3552358;40;20058;-76
2021/05/30 03:14:05;;;;;;;12.13;4.95;;;;;;;14.25;61.23;102322.50;3542870;40;20065;-75
2021/05/30 03:16:40;;;;;;;11.98;5.03;;;;;;;14.22;61.24;102318.13;3556793;40;20042;-76
2021/05/30 03:19:09;;;;;;;14.88;6.57;;;;;;;14.21;63.12;102315.53;3535814;40;20058;-76
2021/05/30 03:21:40;;;;;;;16.42;5.95;;;;;;;14.18;62.38;102312.94;3533830;40;20582;-75
2021/05/30 03:24:09;;;;;;;13.38;6.10;;;;;;;14.15;61.93;102311.22;3549461;40;20374;-76
2021/05/30 03:26:36;;;;;;;11.02;5.20;;;;;;;14.13;62.24;102312.13;3542067;40;20074;-75
2021/05/30 03:29:06;;;;;;;12.18;4.88;;;;;;;14.08;61.90;102308.66;3548351;40;20054;-75
2021/05/30 03:31:33;;;;;;;12.93;5.90;;;;;;;14.01;62.43;102308.75;3548392;40;20086;-76
2021/05/30 03:34:07;;;;;;;11.60;5.30;;;;;;;14.03;61.53;102317.47;3555912;40;20665;-76
2021/05/30 03:36:35;;;;;;;9.45;4.28;;;;;;;13.98;61.61;102313.16;3540372;40;20140;-76
2021/05/30 03:39:09;;;;;;;10.02;4.00;;;;;;;13.98;61.25;102313.16;3556992;40;20054;-76
2021/05/30 03:41:42;;;;;;;12.07;4.72;;;;;;;13.85;61.89;102298.44;3555201;40;20057;-75
2021/05/30 03:44:12;;;;;;;10.75;4.82;;;;;;;13.89;61.53;102308.00;3556914;40;20045;-75
2021/05/30 03:46:39;;;;;;;14.55;6.28;;;;;;;13.84;62.06;102304.53;3557705;40;20070;-76
2021/05/30 03:49:09;;;;;;;13.90;5.88;;;;;;;13.83;62.28;102310.69;3554430;40;20051;-75
2021/05/30 03:51:36;;;;;;;14.38;6.30;;;;;;;13.76;62.03;102302.88;3551807;40;20050;-75
2021/05/30 03:54:03;;;;;;;15.95;6.55;;;;;;;13.72;62.17;102295.91;3541457;40;20060;-75
2021/05/30 03:56:31;;;;;;;14.60;6.20;;;;;;;13.78;61.85;102300.22;3555624;40;20116;-76
2021/05/30 03:58:58;;;;;;;16.42;6.80;;;;;;;13.71;62.21;102303.81;3547031;40;20065;-75
2021/05/30 04:01:29;;;;;;;11.77;5.05;;;;;;;13.73;62.16;102302.91;3546411;40;20136;-75
2021/05/30 04:03:56;;;;;;;11.93;5.13;;;;;;;13.71;63.65;102299.44;3547149;40;20425;-76
2021/05/30 04:06:25;;;;;;;12.20;5.60;;;;;;;13.69;62.34;102295.97;3539626;40;20076;-76
2021/05/30 04:08:53;;;;;;;9.65;4.25;;;;;;;13.65;61.93;102294.25;3542534;40;20066;-75
2021/05/30 04:11:20;;;;;;;12.75;6.15;;;;;;;13.66;63.22;102296.00;3539168;40;20108;-76
2021/05/30 04:13:48;;;;;;;11.25;4.97;;;;;;;13.58;62.44;102287.31;3547166;40;20061;-75
2021/05/30 04:16:18;;;;;;;;;;;;;;;13.64;59.77;102305.66;3532121;40;20160;-76
2021/05/30 04:18:45;;;;;;;10.85;4.65;;;;;;;13.57;62.78;102300.47;3545065;40;19949;-75
2021/05/30 04:21:14;;;;;;;12.55;5.10;;;;;;;13.56;62.22;102296.97;3547142;40;20062;-75
2021/05/30 04:23:45;;;;;;;10.98;4.70;;;;;;;13.56;62.26;102306.59;3555039;40;20054;-75
2021/05/30 04:26:15;;;;;;;9.85;4.25;;;;;;;13.52;61.73;102291.75;3533901;40;20070;-76
2021/05/30 04:28:42;;;;;;;10.20;4.10;;;;;;;13.48;62.11;102290.91;3547010;40;20084;-75
2021/05/30 04:31:12;;;;;;;10.32;4.32;;;;;;;13.49;62.22;102292.66;3548376;40;20082;-76
2021/05/30 04:33:41;;;;;;;12.25;5.35;;;;;;;13.46;62.34;102298.81;3560809;40;20053;-75
2021/05/30 04:36:10;;;;;;;11.25;4.70;;;;;;;13.46;62.51;102295.31;3541345;40;20399;-75
2021/05/30 04:38:36;;;;;;;14.57;5.55;;;;;;;13.39;62.79;102281.38;3552310;40;20097;-75
2021/05/30 04:41:10;;;;;;;9.68;4.13;;;;;;;13.47;62.11;102294.41;3546538;40;20045;-75
2021/05/30 04:43:38;;;;;;;12.00;4.55;;;;;;;13.44;63.75;102294.47;3537448;40;20536;-76
2021/05/30 04:46:07;;;;;;;11.13;4.68;;;;;;;13.43;62.69;102292.69;3549456;40;20046;-76
2021/05/30 04:48:35;;;;;;;10.13;4.18;;;;;;;13.41;63.25;102282.22;3540385;40;20061;-76
2021/05/30 04:51:05;;;;;;;12.48;4.68;;;;;;;13.41;63.22;102284.00;3550115;40;20076;-76
2021/05/30 04:53:37;;;;;;;10.15;4.25;;;;;;;13.42;63.39;102285.72;3550516;40;20104;-76
2021/05/30 04:56:04;;;;;;;12.25;4.93;;;;;;;13.45;64.42;102290.94;3538509;40;20093;-75
2021/05/30 04:58:32;;;;;;;10.95;5.20;;;;;;;13.45;64.28;102291.81;3557984;40;20057;-75
2021/05/30 05:01:04;;;;;;;12.95;5.50;;;;;;;13.44;64.30;102284.84;3550780;40;20045;-76
2021/05/30 05:03:35;;;;;;;12.80;5.70;;;;;;;13.47;63.85;102287.41;3552511;40;20077;-75
2021/05/30 05:06:02;;;;;;;9.25;4.10;;;;;;;13.48;64.53;102283.94;3557555;40;20053;-76
2021/05/30 05:08:30;;;;;;;10.88;4.32;;;;;;;13.45;64.25;102280.47;3554799;40;20077;-75
2021/05/30 05:10:58;;;;;;;10.90;4.90;;;;;;;13.48;64.64;102281.31;3551651;40;20061;-76
2021/05/30 05:13:25;;;;;;;11.75;4.57;;;;;;;13.46;65.48;102269.06;3560306;40;20050;-76
2021/05/30 05:15:53;;;;;;;11.73;4.80;;;;;;;13.55;65.55;102284.72;3542551;40;20065;-76
2021/05/30 05:18:25;;;;;;;11.65;4.80;;;;;;;13.58;65.34;102279.44;3563294;40;20781;-75
2021/05/30 05:20:52;;;;;;;12.60;5.43;;;;;;;13.61;66.61;102287.28;3548152;40;20057;-75
2021/05/30 05:23:22;;;;;;;10.20;4.68;;;;;;;13.58;65.78;102266.31;3555411;40;20135;-75
2021/05/30 05:25:49;;;;;;;12.57;5.90;;;;;;;13.66;67.00;102275.00;3558719;40;20057;-75
2021/05/30 05:28:19;;;;;;;;;;;;;;;13.73;62.47;102287.16;3537874;40;20052;-76
2021/05/30 05:30:45;;;;;;;8.32;3.25;;;;;;;13.70;66.46;102275.84;3554252;40;19989;-75
2021/05/30 05:33:12;;;;;;;11.10;4.88;;;;;;;13.73;67.07;102271.41;3548756;40;20403;-76
2021/05/30 05:35:41;;;;;;;11.18;5.10;;;;;;;13.80;66.70;102264.34;3551839;40;20062;-75
2021/05/30 05:38:09;;;;;;;10.85;4.00;;;;;;;13.83;66.68;102266.91;3556256;40;20488;-76
2021/05/30 05:40:36;;;;;;;12.95;5.60;;;;;;;13.86;67.96;102268.66;3543229;40;20054;-75
2021/05/30 05:43:08;;;;;;;11.07;3.95;;;;;;;13.91;66.33;102267.72;3554644;40;20124;-75
2021/05/30 05:45:37;;;;;;;12.00;6.20;;;;;;;13.92;67.65;102268.59;3535548;40;20419;-76
2021/05/30 05:48:15;;;;;;;10.65;5.07;;;;;;;14.01;65.99;102268.47;3540042;40;20076;-75
2021/05/30 05:50:45;;;;;;;13.70;6.85;;;;;;;14.03;68.74;102257.06;3538936;40;20050;-75
2021/05/30 05:53:16;;;;;;;16.02;7.07;;;;;;;14.08;67.88;102262.25;3541634;40;20056;-76
2021/05/30 05:55:52;;;;;;;14.00;6.20;;;;;;;14.12;67.26;102263.09;3549121;40;20051;-76
2021/05/30 05:58:19;;;;;;;12.43;6.10;;;;;;;14.11;68.64;102254.34;3536845;40;20141;-76
2021/05/30 06:00:46;;;;;;;12.52;6.30;;;;;;;14.19;69.23;102259.50;3559874;40;20073;-75
2021/05/30 06:03:13;;;;;;;12.48;5.80;;;;;;;14.17;68.76;102251.63;3565093;40;20058;-75
2021/05/30 06:05:41;;;;;;;16.87;6.60;;;;;;;14.21;69.52;102250.72;3557863;40;20049;-76
2021/05/30 06:08:09;;;;;;;;;;;;;;;14.35;64.71;102254.94;3560813;40;21060;-76
2021/05/30 06:10:36;;;;;;;9.95;4.30;;;;;;;14.31;68.57;102247.97;3556940;40;20274;-76
2021/05/30 06:13:11;;;;;;;11.95;5.43;;;;;;;14.36;68.30;102240.88;3558087;40;20049;-76
2021/05/30 06:15:41;;;;;;;10.88;5.00;;;;;;;14.44;68.74;102249.50;3551091;40;20103;-76
2021/05/30 06:18:11;;;;;;;10.65;4.95;;;;;;;14.46;69.44;102250.38;3558496;40;20057;-76
2021/05/30 06:20:42;;;;;;;13.18;5.95;;;;;;;14.53;69.37;102249.44;3548563;40;20129;-75
2021/05/30 06:23:10;;;;;;;11.63;4.65;;;;;;;14.56;69.47;102252.03;3551276;40;20745;-76
2021/05/30 06:25:37;;;;;;;13.77;6.03;;;;;;;14.62;69.80;102254.56;3557283;40;20042;-75
2021/05/30 06:28:05;;;;;;;12.82;5.93;;;;;;;14.64;70.15;102242.25;3557779;40;20063;-76
2021/05/30 06:30:39;;;;;;;13.15;5.22;;;;;;;14.74;69.28;102249.09;3553122;40;20105;-75
2021/05/30 06:33:10;;;;;;;10.43;4.95;;;;;;;14.78;68.67;102250.81;3545077;40;20058;-76
2021/05/30 06:35:39;;;;;;;8.98;4.03;;;;;;;14.85;68.99;102245.44;3559286;40;20061;-76
2021/05/30 06:38:08;;;;;;;11.75;5.30;;;;;;;14.88;69.31;102243.63;3556906;40;20106;-76
2021/05/30 06:40:35;;;;;;;13.38;5.60;;;;;;;14.92;70.06;102236.56;3554991;40;20453;-76
2021/05/30 06:43:04;;;;;;;11.90;5.85;;;;;;;14.98;69.84;102242.59;3555297;40;20054;-76
2021/05/30 06:45:31;;;;;;;10.30;5.05;;;;;;;14.98;69.12;102231.22;3542689;40;20245;-76
2021/05/30 06:48:00;;;;;;;14.77;6.70;;;;;;;15.11;69.91;102237.16;3554473;40;20057;-76
2021/05/30 06:50:30;;;;;;;11.93;5.18;;;;;;;15.14;69.74;102227.41;3550149;40;20085;-76
2021/05/30 06:52:57;;;;;;;10.75;5.35;;;;;;;15.20;69.73;102242.22;3550053;40;20054;-77
2021/05/30 06:55:26;;;;;;;13.27;5.72;;;;;;;15.29;69.78;102242.94;3550914;40;20136;-77
2021/05/30 06:57:53;;;;;;;12.25;5.43;;;;;;;15.31;69.96;102241.16;3539293;40;20699;-76
2021/05/30 07:00:20;;;;;;;8.30;3.63;;;;;;;15.41;68.61;102246.25;3556049;40;20414;-76
2021/05/30 07:02:51;;;;;;;10.57;5.15;;;;;;;15.49;68.97;102245.22;3554632;40;20053;-76
2021/05/30 07:05:21;;;;;;;11.63;5.57;;;;;;;15.51;68.88;102242.53;3531983;40;20073;-76
2021/05/30 07:07:49;;;;;;;10.02;4.30;;;;;;;15.60;68.66;102252.03;3550963;40;20510;-75
2021/05/30 07:10:19;;;;;;;8.75;4.25;;;;;;;15.66;68.50;102244.94;3540416;40;20065;-76
2021/05/30 07:12:48;;;;;;;12.05;5.13;;;;;;;15.70;69.39;102243.09;3545855;40;20054;-76
2021/05/30 07:15:15;;;;;;;13.30;6.47;;;;;;;15.74;69.67;102245.66;3556049;40;20064;-76
2021/05/30 07:17:43;;;;;;;11.30;5.47;;;;;;;15.68;69.70;102227.34;3563487;40;20053;-76
2021/05/30 07:20:13;;;;;;;10.85;5.85;;;;;;;15.88;69.80;102253.28;3555299;40;20057;-76
2021/05/30 07:22:42;;;;;;;11.32;5.45;;;;;;;15.95;69.85;102243.50;3553950;40;20090;-76
2021/05/30 07:25:12;;;;;;;16.10;6.18;;;;;;;16.02;69.60;102245.13;3557094;40;20728;-75
2021/05/30 07:27:40;;;;;;;10.85;5.25;;;;;;;16.04;69.49;102238.91;3553531;40;20085;-75
2021/05/30 07:30:09;;;;;;;10.75;4.90;;;;;;;16.12;70.06;102241.38;3551748;40;20125;-75
2021/05/30 07:32:37;;;;;;;11.23;5.38;;;;;;;16.19;69.52;102247.38;3549207;40;22130;-76
2021/05/30 07:35:08;;;;;;;14.15;6.07;;;;;;;16.25;69.24;102242.84;3542550;40;20268;-75
2021/05/30 07:37:35;;;;;;;11.40;5.35;;;;;;;16.30;70.65;102240.97;3550388;40;20061;-76
2021/05/30 07:40:03;;;;;;;12.93;6.65;;;;;;;16.35;69.91;102233.81;3553457;40;22329;-76
2021/05/30 07:42:32;;;;;;;18.00;9.48;;;;;;;16.43;70.03;102231.03;3541544;40;20057;-75
2021/05/30 07:45:00;;;;;;;14.95;7.47;;;;;;;16.55;70.45;102250.97;3544725;40;20072;-76
2021/05/30 07:47:27;;;;;;;12.23;6.05;;;;;;;16.59;69.83;102247.38;3554620;40;20070;-76
2021/05/30 07:49:54;;;;;;;14.18;6.60;;;;;;;16.65;70.01;102241.94;3545458;40;20060;-76
2021/05/30 07:52:22;;;;;;;12.00;5.53;;;;;;;16.75;69.58;102245.28;3541583;40;20394;-75
2021/05/30 07:54:54;;;;;;;;;;;;;;;16.90;66.25;102249.31;3554668;40;20053;-76
2021/05/30 07:57:21;;;;;;;11.20;5.00;;;;;;;16.92;69.24;102255.41;3534168;40;19953;-76
2021/05/30 07:59:48;;;;;;;10.63;4.90;;;;;;;16.93;69.41;102241.31;3536876;40;20082;-76
2021/05/30 08:02:15;;;;;;;12.90;5.53;;;;;;;17.05;69.25;102246.28;3544680;40;20132;-76
2021/05/30 08:04:45;;;;;;;9.85;4.53;;;;;;;17.08;69.26;102247.09;3530584;40;20054;-75
2021/05/30 08:07:12;;;;;;;10.02;4.53;;;;;;;17.16;68.66;102249.53;3550243;40;20074;-76
2021/05/30 08:09:40;;;;;;;11.27;4.60;;;;;;;17.26;68.73;102250.16;3531008;40;20396;-75
2021/05/30 08:12:07;;;;;;;9.52;5.00;;;;;;;17.31;68.75;102243.00;3543392;40;20046;-76
2021/05/30 08:14:36;;;;;;;12.13;4.78;;;;;;;17.37;68.27;102238.41;3550879;40;20057;-76
2021/05/30 08:17:06;;;;;;;10.25;5.10;;;;;;;17.50;67.67;102249.53;3539940;40;20093;-75
2021/05/30 08:19:35;;;;;;;9.02;4.28;;;;;;;17.54;67.60;102243.25;3542984;40;20204;-77
2021/05/30 08:22:10;;;;;;;8.73;3.67;;;;;;;17.66;66.54;102236.75;3547701;40;20096;-76
2021/05/30 08:24:37;;;;;;;9.73;4.38;;;;;;;17.71;67.06;102241.91;3540970;40;20085;-76
2021/05/30 08:27:05;;;;;;;9.20;3.85;;;;;;;17.76;67.38;102234.75;3558251;40;20417;-76
2021/05/30 08:29:36;;;;;;;9.32;4.07;;;;;;;17.88;66.39;102240.53;3552179;40;20170;-76
2021/05/30 08:32:05;;;;;;;8.63;4.05;;;;;;;17.91;66.51;102236.97;3543085;40;20064;-75
2021/05/30 08:34:32;;;;;;;8.07;4.28;;;;;;;17.97;66.00;102241.19;3550957;40;20049;-76
2021/05/30 08:36:59;;;;;;;6.68;3.40;;;;;;;18.02;65.71;102236.66;3551099;40;20992;-76
2021/05/30 08:39:28;;;;;;;8.85;3.95;;;;;;;18.14;65.70;102247.72;3541615;40;20156;-76
2021/05/30 08:41:54;;;;;;;9.48;4.25;;;;;;;18.19;66.36;102234.34;3552289;40;20716;-77
2021/05/30 08:44:21;;;;;;;9.02;4.07;;;;;;;18.25;65.72;102239.50;3551984;40;20102;-76
2021/05/30 08:46:49;;;;;;;8.77;4.10;;;;;;;18.32;65.06;102241.03;3537063;40;20109;-76
2021/05/30 08:49:18;;;;;;;7.82;4.10;;;;;;;18.46;64.63;102245.03;3539673;40;20051;-76
2021/05/30 08:51:45;;;;;;;8.75;3.88;;;;;;;18.48;63.72;102240.53;3540596;40;20147;-76
2021/05/30 08:54:16;;;;;;;8.57;4.00;;;;;;;18.62;63.99;102239.19;3552047;40;20135;-76
2021/05/30 08:56:44;;;;;;;7.93;3.92;;;;;;;18.65;63.51;102228.53;3548411;40;21018;-76
2021/05/30 08:59:16;;;;;;;7.72;3.60;;;;;;;18.81;63.30;102241.31;3552471;40;20082;-77
2021/05/30 09:01:45;;;;;;;8.30;3.88;;;;;;;18.87;62.99;102238.44;3547927;40;20409;-76
2021/05/30 09:04:14;;;;;;;8.50;3.80;;;;;;;18.95;63.64;102236.41;3553171;40;20654;-76
2021/05/30 09:06:45;;;;;;;9.35;3.92;;;;;;;19.03;63.01;102233.50;3550354;40;20485;-76
2021/05/30 09:09:13;;;;;;;8.48;3.70;;;;;;;19.10;62.75;102229.72;3553108;40;20444;-76
2021/05/30 09:11:44;;;;;;;8.10;3.92;;;;;;;19.21;62.47;102238.19;3550327;40;20058;-76
2021/05/30 09:14:24;;;;;;;7.18;3.78;;;;;;;19.37;62.30;102239.38;3544415;40;20058;-76
2021/05/30 09:17:02;;;;;;;9.45;4.03;;;;;;;19.50;61.46;102233.63;3541845;40;20074;-76
2021/05/30 09:19:46;;;;;;;6.00;3.05;;;;;;;19.62;61.82;102234.13;3532682;40;20054;-77
2021/05/30 09:22:16;;;;;;;7.32;3.88;;;;;;;19.75;61.60;102237.16;3543898;40;20382;-76
2021/05/30 09:24:52;;;;;;;7.00;3.80;;;;;;;20.09;60.50;102235.91;3561065;40;20065;-77
2021/05/30 09:27:32;;;;;;;7.30;3.55;;;;;;;20.41;59.56;102235.53;3549454;40;20106;-77
2021/05/30 09:30:20;;;;;;;8.57;4.20;;;;;;;20.97;59.82;102235.03;3548134;40;20427;-76
2021/05/30 09:33:03;;;;;;;7.78;4.57;;;;;;;21.38;58.30;102227.13;3550921;40;20057;-77
2021/05/30 09:35:36;;;;;;;7.43;3.75;;;;;;;21.74;56.74;102221.09;3537618;40;20320;-77
2021/05/30 09:38:29;;;;;;;7.18;3.95;;;;;;;22.01;55.65;102219.84;3536071;40;20417;-77
2021/05/30 09:41:07;;;;;;;7.13;3.63;;;;;;;22.20;53.73;102213.69;3549380;40;20046;-77
2021/05/30 09:43:47;;;;;;;7.18;3.60;;;;;;;22.49;55.02;102218.47;3532649;40;20121;-77
2021/05/30 09:46:15;;;;;;;8.73;4.25;;;;;;;22.67;51.96;102229.19;3534562;40;20287;-77
2021/05/30 09:48:51;;;;;;;7.75;4.05;;;;;;;22.94;52.86;102217.16;3539343;40;20094;-76
2021/05/30 09:51:28;;;;;;;7.00;3.63;;;;;;;23.11;53.02;102216.28;3534940;40;20055;-77
2021/05/30 09:53:59;;;;;;;7.60;3.80;;;;;;;23.25;51.01;102212.94;3541452;40;20303;-77
2021/05/30 09:56:33;;;;;;;7.28;4.03;;;;;;;23.53;51.94;102209.69;3536923;40;20423;-76
2021/05/30 09:59:01;;;;;;;7.03;3.70;;;;;;;23.74;50.17;102218.38;3533925;40;20066;-77
2021/05/30 10:01:45;;;;;;;7.80;4.85;;;;;;;24.02;49.79;102212.38;3536655;40;20059;-77
2021/05/30 10:04:12;;;;;;;9.85;4.22;;;;;;;24.36;48.91;102215.88;3525985;40;20526;-77
2021/05/30 10:06:41;;;;;;;7.18;3.90;;;;;;;24.71;47.92;102211.19;3537688;40;20597;-77
2021/05/30 10:09:10;;;;;;;21.48;4.25;;;;;;;25.03;48.39;102207.44;3538050;40;20082;-77
2021/05/30 10:11:38;;;;;;;8.35;4.80;;;;;;;25.43;47.00;102204.22;3539725;40;20659;-77
2021/05/30 10:14:06;;;;;;;8.02;4.47;;;;;;;25.90;45.90;102208.44;3537926;40;20074;-77
2021/05/30 10:16:34;;;;;;;8.23;4.30;;;;;;;26.40;46.49;102198.00;3534219;40;20055;-78
2021/05/30 10:19:09;;;;;;;8.70;4.80;;;;;;;27.09;45.90;102205.97;3536169;40;20051;-77
2021/05/30 10:21:43;;;;;;;8.15;4.55;;;;;;;27.60;44.91;102206.84;3530362;40;20062;-77
2021/05/30 10:24:11;;;;;;;9.57;4.70;;;;;;;27.90;40.84;102202.97;3530316;40;20077;-77
2021/05/30 10:26:45;;;;;;;7.35;4.35;;;;;;;28.26;41.26;102203.94;3529089;40;20069;-77
2021/05/30 10:29:12;;;;;;;6.88;4.20;;;;;;;28.57;40.74;102208.78;3545807;40;20147;-77
2021/05/30 10:31:42;;;;;;;6.38;3.80;;;;;;;28.99;41.47;102203.81;3555706;40;20439;-77
2021/05/30 10:34:09;;;;;;;7.88;4.30;;;;;;;29.28;39.17;102203.41;3548458;40;20064;-77
2021/05/30 10:36:40;;;;;;;7.82;4.57;;;;;;;29.63;38.12;102190.72;3551187;40;20065;-77
2021/05/30 10:39:32;;;;;;;5.30;3.10;;;;;;;30.13;41.88;102185.81;3532580;40;20077;-77
2021/05/30 10:42:09;;;;;;;8.20;4.28;;;;;;;30.42;40.65;102190.63;3536544;40;20427;-77
2021/05/30 10:44:49;;;;;;;7.53;4.50;;;;;;;30.81;40.58;102188.25;3523885;40;20505;-77
2021/05/30 10:47:17;;;;;;;10.07;4.80;;;;;;;30.92;36.13;102180.09;3536940;40;20107;-77
2021/05/30 10:50:07;;;;;;;6.18;3.90;;;;;;;31.42;39.71;102180.28;3548195;40;20053;-77
2021/05/30 10:52:47;;;;;;;8.10;5.63;;;;;;;31.56;34.36;102177.22;3530474;40;20140;-77
2021/05/30 10:55:20;;;;;;;8.90;5.57;;;;;;;31.78;35.32;102176.16;3548102;40;20512;-77
2021/05/30 10:57:50;;;;;;;6.30;4.25;;;;;;;31.83;35.44;102173.94;3534198;40;20158;-77
2021/05/30 11:00:17;;;;;;;7.00;4.38;;;;;;;31.85;34.45;102171.09;3548278;40;20060;-78
2021/05/30 11:03:04;;;;;;;;;;;;;;;32.31;39.72;102166.91;3532372;40;20058;-77
2021/05/30 11:05:50;;;;;;;;;;;;;;;32.54;39.73;102165.66;3536179;40;20012;-77
2021/05/30 11:08:32;;;;;;;;;;;;;;;32.82;40.45;102163.94;3532619;40;19953;-77
2021/05/30 11:11:11;;;;;;;10.20;5.97;;;;;;;33.07;36.99;102165.19;3534307;40;19957;-78
2021/05/30 11:13:56;;;;;;;9.45;5.40;;;;;;;33.28;35.83;102157.72;3538319;40;20102;-78
2021/05/30 11:16:25;;;;;;;10.25;5.85;;;;;;;33.30;31.97;102149.44;3543708;40;20536;-77
2021/05/30 11:19:03;;;;;;;9.75;6.28;;;;;;;33.61;33.49;102147.34;3553054;40;20065;-78
2021/05/30 11:21:43;;;;;;;9.55;6.32;;;;;;;33.69;31.36;102150.13;3540026;40;20066;-77
2021/05/30 11:24:14;;;;;;;10.13;6.10;;;;;;;34.01;31.71;102151.53;3537984;40;20084;-77
2021/05/30 11:27:00;;;;;;;10.35;5.43;;;;;;;34.36;33.63;102157.97;3552397;40;20151;-77
2021/05/30 11:29:28;;;;;;;9.73;6.07;;;;;;;34.32;30.75;102149.31;3533805;40;20061;-77
2021/05/30 11:31:59;;;;;;;10.77;6.38;;;;;;;34.49;29.40;102147.63;3540599;40;20277;-77
2021/05/30 11:34:35;;;;;;;8.43;5.85;;;;;;;34.83;31.38;102150.44;3542408;40;20113;-78
2021/05/30 11:37:10;;;;;;;9.07;6.28;;;;;;;34.93;30.04;102145.78;3533379;40;20074;-78
2021/05/30 11:39:40;;;;;;;8.95;5.85;;;;;;;34.98;30.50;102151.59;3533696;40;20588;-78